Terminal Aerodrome Forecast
Issued by NWS Des Moines, IA

Home | Current Version | Previous Version | Text Only | Print | Product List | Glossary On
Versions: 1 2 3 4 5 6 7 8 9 10 11 12 13 14 15 16 17 18 19 20 21 22 23 24 25 26 27 28
000
FTUS43 KDMX 220526
TAFALO
TAF
KALO 220526Z 2206/2306 VRB05KT P6SM BKN110
     FM221600 09008KT P6SM VCSH OVC040
     FM221800 09008KT P6SM -SN OVC027
     FM221900 09009KT P6SM -SN OVC019
     FM222200 10010KT 5SM -FZDZSN OVC008
     FM230000 11010KT 2SM -FZRA OVC008
     FM230200 12010G18KT 1SM -FZRA OVC006=

USA.gov is the U.S. government's official web portal to all federal, state and local government web resources and services.